createdAt,value
2022-09-28T00:00:58.434Z,99.99
2022-09-28T00:01:58.567Z,99.99
2022-09-28T00:02:58.445Z,99.99
2022-09-28T00:03:58.389Z,99.99
2022-09-28T00:04:58.381Z,99.99
2022-09-28T00:05:58.368Z,99.99
2022-09-28T00:06:58.383Z,99.99
2022-09-28T00:07:58.453Z,99.99
2022-09-28T00:08:58.332Z,99.99
2022-09-28T00:09:58.348Z,99.99
2022-09-28T00:10:58.319Z,99.99
2022-09-28T00:11:58.300Z,99.99
2022-09-28T00:12:58.323Z,99.99
2022-09-28T00:13:58.301Z,99.99
2022-09-28T00:14:58.269Z,99.99
2022-09-28T00:15:58.315Z,99.99
2022-09-28T00:16:58.246Z,99.99
2022-09-28T00:17:58.245Z,99.99
2022-09-28T00:18:58.225Z,99.99
2022-09-28T00:19:58.225Z,99.99
2022-09-28T00:20:58.208Z,99.99
2022-09-28T00:21:58.204Z,99.99
2022-09-28T00:22:58.182Z,99.99
2022-09-28T00:23:58.170Z,99.99
2022-09-28T00:24:58.173Z,99.99
2022-09-28T00:25:58.176Z,99.99
2022-09-28T00:26:58.156Z,99.99
2022-09-28T00:27:58.131Z,99.99
2022-09-28T00:28:58.123Z,99.99
2022-09-28T00:29:58.120Z,99.99
2022-09-28T00:30:58.106Z,99.99
2022-09-28T00:31:58.160Z,99.99
2022-09-28T00:32:58.080Z,99.99
2022-09-28T00:33:58.077Z,99.99
2022-09-28T00:34:58.057Z,99.99
2022-09-28T00:35:58.040Z,99.99
2022-09-28T00:36:58.032Z,99.99
2022-09-28T00:37:58.024Z,99.99
2022-09-28T00:38:58.020Z,99.99
2022-09-28T00:39:58.111Z,99.99
2022-09-28T00:40:58.074Z,99.99
2022-09-28T00:41:58.002Z,99.99
2022-09-28T00:42:57.972Z,99.99
2022-09-28T00:43:57.967Z,99.99
2022-09-28T00:44:57.949Z,99.99
2022-09-28T00:45:58.010Z,99.99
2022-09-28T00:46:57.926Z,99.99
2022-09-28T00:47:57.910Z,99.99
2022-09-28T00:48:57.901Z,99.99
2022-09-28T00:49:57.890Z,99.99
2022-09-28T00:50:57.882Z,99.99
2022-09-28T00:51:57.882Z,99.99
2022-09-28T00:52:57.862Z,99.99
2022-09-28T00:53:57.848Z,99.99
2022-09-28T00:54:57.838Z,99.99
2022-09-28T00:55:57.838Z,99.99
2022-09-28T00:56:57.812Z,99.99
2022-09-28T00:57:57.889Z,99.99
2022-09-28T00:58:57.793Z,99.99
2022-09-28T00:59:57.782Z,99.99
2022-09-28T01:00:57.927Z,99.99
2022-09-28T01:01:57.803Z,99.99
2022-09-28T01:02:57.749Z,99.99
2022-09-28T01:03:57.749Z,99.99
2022-09-28T01:04:57.740Z,99.99
2022-09-28T01:05:57.721Z,99.99
2022-09-28T01:06:57.711Z,99.99
2022-09-28T01:07:57.713Z,99.99
2022-09-28T01:08:57.681Z,99.99
2022-09-28T01:09:57.674Z,99.99
2022-09-28T01:10:57.664Z,99.99
2022-09-28T01:11:57.654Z,99.99
2022-09-28T01:12:57.749Z,99.99
2022-09-28T01:13:57.664Z,99.99
2022-09-28T01:14:57.624Z,99.99
2022-09-28T01:15:57.660Z,99.99
2022-09-28T01:16:57.598Z,99.99
2022-09-28T01:17:57.586Z,99.99
2022-09-28T01:18:57.592Z,99.99
2022-09-28T01:19:57.576Z,99.99
2022-09-28T01:20:57.552Z,99.99
2022-09-28T01:21:57.550Z,99.99
2022-09-28T01:22:57.532Z,99.99
2022-09-28T01:23:57.534Z,99.99
2022-09-28T01:24:57.516Z,99.99
2022-09-28T01:25:57.499Z,99.99
2022-09-28T01:26:57.496Z,99.99
2022-09-28T01:27:57.488Z,99.99
2022-09-28T01:28:57.471Z,99.99
2022-09-28T01:29:57.480Z,99.99
2022-09-28T01:30:57.451Z,99.99
2022-09-28T01:31:57.479Z,99.99
2022-09-28T01:32:57.427Z,99.99
2022-09-28T01:33:57.420Z,99.99
2022-09-28T01:34:57.397Z,99.99
2022-09-28T01:35:57.386Z,99.99
2022-09-28T01:36:57.379Z,99.99
2022-09-28T01:37:57.366Z,99.99
2022-09-28T01:38:57.355Z,99.99
2022-09-28T01:39:57.363Z,99.99
2022-09-28T01:40:57.411Z,99.99
2022-09-28T01:41:57.328Z,99.99
2022-09-28T01:42:57.311Z,99.99
2022-09-28T01:43:57.303Z,99.99
2022-09-28T01:44:57.288Z,99.99
2022-09-28T01:45:57.363Z,99.99
2022-09-28T01:46:57.275Z,99.99
2022-09-28T01:47:57.260Z,99.99
2022-09-28T01:48:57.262Z,99.99
2022-09-28T01:49:57.236Z,99.99
2022-09-28T01:50:57.273Z,99.99
2022-09-28T01:51:57.227Z,99.99
2022-09-28T01:52:57.640Z,99.99
2022-09-28T01:53:57.193Z,99.99
2022-09-28T01:54:57.194Z,99.99
2022-09-28T01:55:57.176Z,99.99
2022-09-28T01:56:57.163Z,99.99
2022-09-28T01:57:57.151Z,99.99
2022-09-28T01:58:57.159Z,99.99
2022-09-28T01:59:57.128Z,99.99
2022-09-28T02:00:57.195Z,99.99
2022-09-28T02:01:57.190Z,99.99
2022-09-28T02:02:57.097Z,99.99
2022-09-28T02:03:57.092Z,99.99
2022-09-28T02:04:57.078Z,99.99
2022-09-28T02:05:57.062Z,99.99
2022-09-28T02:06:57.049Z,99.99
2022-09-28T02:07:57.042Z,99.99
2022-09-28T02:08:57.041Z,99.99
2022-09-28T02:09:57.017Z,99.99
2022-09-28T02:10:57.007Z,99.99
2022-09-28T02:11:57.007Z,99.99
2022-09-28T02:12:57.006Z,99.99
2022-09-28T02:13:57.042Z,99.99
2022-09-28T02:14:56.976Z,99.99
2022-09-28T02:15:57.044Z,99.99
2022-09-28T02:16:57.026Z,99.99
2022-09-28T02:17:56.956Z,99.99
2022-09-28T02:18:56.931Z,99.99
2022-09-28T02:19:56.911Z,99.99
2022-09-28T02:20:56.897Z,99.99
2022-09-28T02:21:56.973Z,99.99
2022-09-28T02:22:56.877Z,99.99
2022-09-28T02:23:56.869Z,99.99
2022-09-28T02:24:56.866Z,99.99
2022-09-28T02:25:56.850Z,99.99
2022-09-28T02:26:56.835Z,99.99
2022-09-28T02:27:56.933Z,99.99
2022-09-28T02:28:56.815Z,99.99
2022-09-28T02:29:56.809Z,99.99
2022-09-28T02:30:56.807Z,99.99
2022-09-28T02:31:56.845Z,99.99
2022-09-28T02:32:56.774Z,99.99
2022-09-28T02:33:56.837Z,99.99
2022-09-28T02:34:56.810Z,99.99
2022-09-28T02:35:56.758Z,99.99
2022-09-28T02:36:56.723Z,99.99
2022-09-28T02:37:56.718Z,99.99
2022-09-28T02:38:56.704Z,99.99
2022-09-28T02:39:56.754Z,99.99
2022-09-28T02:40:56.725Z,99.99
2022-09-28T02:41:56.682Z,99.99
2022-09-28T02:42:56.658Z,99.99
2022-09-28T02:43:56.646Z,99.99
2022-09-28T02:44:56.634Z,99.99
2022-09-28T02:45:56.733Z,99.99
2022-09-28T02:46:56.629Z,99.99
2022-09-28T02:47:56.604Z,99.99
2022-09-28T02:49:17.488Z,99.99
2022-09-28T02:49:57.667Z,99.99
2022-09-28T02:50:56.581Z,99.99
2022-09-28T02:51:56.575Z,99.99
2022-09-28T02:52:56.554Z,99.99
2022-09-28T02:53:56.542Z,99.99
2022-09-28T02:54:56.529Z,99.99
2022-09-28T02:55:56.525Z,99.99
2022-09-28T02:56:56.543Z,99.99
2022-09-28T02:57:56.598Z,99.99
2022-09-28T02:58:56.488Z,99.99
2022-09-28T02:59:56.477Z,99.99
2022-09-28T03:00:56.512Z,99.99
2022-09-28T03:01:56.524Z,99.99
2022-09-28T03:02:56.534Z,99.99
2022-09-28T03:03:56.430Z,99.99
2022-09-28T03:04:56.418Z,99.99
2022-09-28T03:05:56.436Z,99.99
2022-09-28T03:06:56.398Z,99.99
2022-09-28T03:07:56.391Z,99.99
2022-09-28T03:08:56.507Z,99.99
2022-09-28T03:09:56.367Z,99.99
2022-09-28T03:10:56.354Z,99.99
2022-09-28T03:11:56.348Z,99.99
2022-09-28T03:12:56.363Z,99.99
2022-09-28T03:13:56.323Z,99.99
2022-09-28T03:14:56.317Z,99.99
2022-09-28T03:15:56.402Z,99.99
2022-09-28T03:16:56.294Z,99.99
2022-09-28T03:17:56.278Z,99.99
2022-09-28T03:18:56.284Z,99.99
2022-09-28T03:19:56.259Z,99.99
2022-09-28T03:20:56.246Z,99.99
2022-09-28T03:21:56.303Z,99.99
2022-09-28T03:23:22.767Z,99.99
2022-09-28T03:23:57.228Z,99.99
2022-09-28T03:24:56.210Z,99.99
2022-09-28T03:25:56.198Z,99.99
2022-09-28T03:26:56.203Z,99.99
2022-09-28T03:27:56.244Z,99.99
2022-09-28T03:28:56.163Z,99.99
2022-09-28T03:29:56.167Z,99.99
2022-09-28T03:30:56.141Z,99.99
2022-09-28T03:31:56.189Z,99.99
2022-09-28T03:32:56.123Z,99.99
2022-09-28T03:33:56.277Z,99.99
2022-09-28T03:34:56.098Z,99.99
2022-09-28T03:35:56.297Z,99.99
2022-09-28T03:36:56.077Z,99.99
2022-09-28T03:37:56.086Z,99.99
2022-09-28T03:38:56.051Z,99.99
2022-09-28T03:39:56.117Z,99.99
2022-09-28T03:40:56.103Z,99.99
2022-09-28T03:41:56.031Z,99.99
2022-09-28T03:42:56.007Z,99.99
2022-09-28T03:43:56.012Z,99.99
2022-09-28T03:44:55.992Z,99.99
2022-09-28T03:45:56.133Z,99.99
2022-09-28T03:46:55.974Z,99.99
2022-09-28T03:47:55.956Z,99.99
2022-09-28T03:48:55.967Z,99.99
2022-09-28T03:49:55.934Z,99.99
2022-09-28T03:50:55.928Z,99.99
2022-09-28T03:51:55.999Z,99.99
2022-09-28T03:52:55.902Z,99.99
2022-09-28T03:53:55.930Z,99.99
2022-09-28T03:54:55.893Z,99.99
2022-09-28T03:55:55.870Z,99.99
2022-09-28T03:56:55.871Z,99.99
2022-09-28T03:57:55.913Z,99.99
2022-09-28T03:58:55.834Z,99.99
2022-09-28T03:59:55.834Z,99.99
2022-09-28T04:00:55.940Z,99.99
2022-09-28T04:01:55.859Z,99.49
2022-09-28T04:02:55.840Z,99.99
2022-09-28T04:03:55.838Z,99.99
2022-09-28T04:04:55.772Z,99.99
2022-09-28T04:05:55.760Z,99.99
2022-09-28T04:06:55.772Z,99.99
2022-09-28T04:07:55.735Z,99.99
2022-09-28T04:08:55.745Z,99.99
2022-09-28T04:09:55.798Z,99.99
2022-09-28T04:10:55.708Z,99.99
2022-09-28T04:12:03.750Z,99.99
2022-09-28T04:12:56.696Z,99.99
2022-09-28T04:13:55.676Z,99.99
2022-09-28T04:14:55.665Z,99.99
2022-09-28T04:15:55.871Z,99.99
2022-09-28T04:16:55.638Z,99.99
2022-09-28T04:17:55.688Z,99.99
2022-09-28T04:18:55.628Z,99.99
2022-09-28T04:19:55.606Z,99.99
2022-09-28T04:20:55.596Z,99.99
2022-09-28T04:21:55.589Z,99.99
2022-09-28T04:22:55.588Z,99.99
2022-09-28T04:23:55.574Z,99.99
2022-09-28T04:24:55.551Z,99.99
2022-09-28T04:25:55.569Z,99.99
2022-09-28T04:26:55.530Z,99.99
2022-09-28T04:27:55.584Z,99.99
2022-09-28T04:28:55.527Z,99.99
2022-09-28T04:29:55.496Z,99.99
2022-09-28T04:30:55.564Z,99.99
2022-09-28T04:31:55.640Z,99.99
2022-09-28T04:32:55.465Z,99.99
2022-09-28T04:33:55.530Z,99.99
2022-09-28T04:34:55.464Z,99.43
2022-09-28T04:35:55.435Z,99.99
2022-09-28T04:36:55.423Z,99.99
2022-09-28T04:37:55.414Z,99.99
2022-09-28T04:38:55.414Z,98.81
2022-09-28T04:39:55.448Z,99.99
2022-09-28T04:40:55.448Z,99.07
2022-09-28T04:41:55.396Z,97.77
2022-09-28T04:42:55.359Z,97.14
2022-09-28T04:43:55.359Z,96.89
2022-09-28T04:44:55.338Z,97.41
2022-09-28T04:45:55.475Z,96.58
2022-09-28T04:46:55.314Z,97.41
2022-09-28T04:47:55.304Z,98.14
2022-09-28T04:48:55.295Z,99.18
2022-09-28T04:49:55.296Z,99.07
2022-09-28T04:50:55.270Z,99.59
2022-09-28T04:51:55.324Z,99.49
2022-09-28T04:52:55.253Z,99.99
2022-09-28T04:53:55.241Z,99.99
2022-09-28T04:54:55.229Z,99.99
2022-09-28T04:55:55.225Z,99.99
2022-09-28T04:56:55.226Z,99.99
2022-09-28T04:57:55.498Z,99.99
2022-09-28T04:58:55.190Z,99.99
2022-09-28T04:59:55.173Z,99.99
2022-09-28T05:00:55.261Z,99.99
2022-09-28T05:01:55.278Z,99.99
2022-09-28T05:02:55.152Z,99.99
2022-09-28T05:03:55.129Z,99.99
2022-09-28T05:04:55.177Z,99.99
2022-09-28T05:05:55.109Z,99.99
2022-09-28T05:06:55.097Z,99.59
2022-09-28T05:07:55.098Z,99.99
2022-09-28T05:08:55.118Z,99.99
2022-09-28T05:09:55.071Z,99.99
2022-09-28T05:10:55.143Z,99.99
2022-09-28T05:11:55.057Z,99.99
2022-09-28T05:12:55.035Z,99.99
2022-09-28T05:13:55.049Z,99.99
2022-09-28T05:14:55.022Z,99.99
2022-09-28T05:15:58.812Z,99.99
2022-09-28T05:16:56.124Z,99.99
2022-09-28T05:17:54.996Z,99.99
2022-09-28T05:18:54.985Z,99.99
2022-09-28T05:19:54.974Z,99.99
2022-09-28T05:20:54.948Z,99.99
2022-09-28T05:21:54.940Z,99.99
2022-09-28T05:22:54.989Z,99.99
2022-09-28T05:23:54.925Z,99.99
2022-09-28T05:24:54.916Z,99.99
2022-09-28T05:25:54.895Z,99.99
2022-09-28T05:26:54.884Z,99.99
2022-09-28T05:27:54.885Z,99.99
2022-09-28T05:28:54.932Z,99.99
2022-09-28T05:29:54.929Z,99.99
2022-09-28T05:30:54.839Z,99.99
2022-09-28T05:31:54.892Z,99.99
2022-09-28T05:32:54.817Z,99.99
2022-09-28T05:33:54.825Z,99.70
2022-09-28T05:34:54.797Z,99.99
2022-09-28T05:35:59.035Z,99.99
2022-09-28T05:36:55.775Z,99.99
2022-09-28T05:37:54.764Z,99.99
2022-09-28T05:38:54.752Z,99.99
2022-09-28T05:39:54.752Z,99.99
2022-09-28T05:40:54.803Z,99.99
2022-09-28T05:41:54.829Z,99.99
2022-09-28T05:42:54.708Z,99.99
2022-09-28T05:43:54.700Z,99.99
2022-09-28T05:44:54.686Z,99.99
2022-09-28T05:45:55.907Z,99.99
2022-09-28T05:46:54.676Z,99.99
2022-09-28T05:47:54.724Z,99.99
2022-09-28T05:48:54.645Z,98.10
2022-09-28T05:49:54.634Z,96.12
2022-09-28T05:50:54.623Z,98.78
2022-09-28T05:51:54.628Z,98.47
2022-09-28T05:52:54.598Z,99.99
2022-09-28T05:53:54.692Z,99.99
2022-09-28T05:54:54.583Z,99.99
2022-09-28T05:55:54.572Z,99.99
2022-09-28T05:56:54.563Z,99.99
2022-09-28T05:57:54.560Z,99.99
2022-09-28T05:58:54.538Z,99.99
2022-09-28T05:59:54.533Z,99.99
2022-09-28T06:00:54.542Z,99.99
2022-09-28T06:01:54.532Z,99.99
2022-09-28T06:02:54.505Z,99.99
2022-09-28T06:03:54.485Z,98.68
2022-09-28T06:04:54.469Z,97.43
2022-09-28T06:05:54.518Z,98.26
2022-09-28T06:06:54.447Z,97.95
2022-09-28T06:07:54.449Z,97.07
2022-09-28T06:08:54.431Z,96.66
2022-09-28T06:09:54.415Z,98.16
2022-09-28T06:10:54.488Z,97.59
2022-09-28T06:11:54.395Z,98.47
2022-09-28T06:12:54.387Z,99.56
2022-09-28T06:13:54.372Z,99.46
2022-09-28T06:14:54.364Z,99.25
2022-09-28T06:15:54.351Z,99.25
2022-09-28T06:16:54.562Z,99.04
2022-09-28T06:17:54.361Z,99.46
2022-09-28T06:18:54.320Z,99.99
2022-09-28T06:19:54.305Z,99.77
2022-09-28T06:20:54.297Z,99.99
2022-09-28T06:21:54.287Z,99.99
2022-09-28T06:22:54.390Z,99.46
2022-09-28T06:23:54.262Z,99.46
2022-09-28T06:24:54.249Z,99.99
2022-09-28T06:25:54.242Z,99.99
2022-09-28T06:26:54.228Z,99.99
2022-09-28T06:27:54.218Z,99.99
2022-09-28T06:28:54.274Z,99.99
2022-09-28T06:29:54.196Z,99.99
2022-09-28T06:30:54.359Z,99.99
2022-09-28T06:31:54.281Z,99.99
2022-09-28T06:32:54.181Z,99.99
2022-09-28T06:33:54.196Z,99.99
2022-09-28T06:34:56.457Z,98.52
2022-09-28T06:35:54.197Z,99.87
2022-09-28T06:36:54.123Z,99.99
2022-09-28T06:37:54.111Z,99.46
2022-09-28T06:38:54.103Z,98.73
2022-09-28T06:39:54.106Z,99.46
2022-09-28T06:40:54.142Z,99.99
2022-09-28T06:41:54.108Z,99.99
2022-09-28T06:42:54.057Z,99.99
2022-09-28T06:43:54.045Z,99.77
2022-09-28T06:44:54.037Z,99.56
2022-09-28T06:45:54.044Z,99.40
2022-09-28T06:46:54.015Z,99.35
2022-09-28T06:47:54.078Z,99.04
2022-09-28T06:48:53.994Z,99.99
2022-09-28T06:49:54.101Z,99.99
2022-09-28T06:50:53.968Z,99.99
2022-09-28T06:51:53.958Z,99.99
2022-09-28T06:52:53.946Z,99.99
2022-09-28T06:53:54.021Z,99.99
2022-09-28T06:54:53.930Z,99.99
2022-09-28T06:55:53.926Z,99.99
2022-09-28T06:56:53.915Z,99.99
2022-09-28T06:57:53.900Z,99.99
2022-09-28T06:58:53.885Z,99.99
2022-09-28T06:59:53.941Z,99.99
2022-09-28T07:00:53.890Z,99.99
2022-09-28T07:01:53.962Z,99.99
2022-09-28T07:02:53.841Z,99.99
2022-09-28T07:03:55.835Z,99.62
2022-09-28T07:04:53.816Z,99.99
2022-09-28T07:05:53.890Z,99.99
2022-09-28T07:06:53.795Z,99.99
2022-09-28T07:07:53.795Z,99.99
2022-09-28T07:09:02.205Z,99.99
2022-09-28T07:09:55.542Z,99.99
2022-09-28T07:10:53.753Z,99.99
2022-09-28T07:11:53.807Z,99.99
2022-09-28T07:12:53.732Z,99.99
2022-09-28T07:13:53.738Z,99.99
2022-09-28T07:14:54.317Z,99.99
2022-09-28T07:15:53.698Z,99.99
2022-09-28T07:17:11.849Z,99.99
2022-09-28T07:18:01.360Z,99.99
2022-09-28T07:18:54.678Z,99.99
2022-09-28T07:19:53.655Z,99.99
2022-09-28T07:20:54.766Z,99.99
2022-09-28T07:22:02.466Z,99.99
2022-09-28T07:22:54.626Z,99.99
2022-09-28T07:23:54.295Z,99.99
2022-09-28T07:24:53.610Z,99.73
2022-09-28T07:25:53.585Z,99.99
2022-09-28T07:26:53.574Z,99.99
2022-09-28T07:27:53.564Z,99.99
2022-09-28T07:28:53.564Z,99.99
2022-09-28T07:29:53.600Z,99.99
2022-09-28T07:30:53.575Z,99.99
2022-09-28T07:31:53.524Z,99.99
2022-09-28T07:32:53.513Z,99.99
2022-09-28T07:33:53.512Z,99.54
2022-09-28T07:34:58.126Z,99.27
2022-09-28T07:35:54.572Z,99.79
2022-09-28T07:36:53.466Z,99.02
2022-09-28T07:37:53.504Z,99.95
2022-09-28T07:38:53.443Z,99.99
2022-09-28T07:39:53.435Z,99.99
2022-09-28T07:40:53.534Z,99.99
2022-09-28T07:41:56.659Z,99.99
2022-09-28T07:42:54.401Z,99.99
2022-09-28T07:43:53.388Z,99.58
2022-09-28T07:44:53.380Z,99.99
2022-09-28T07:45:53.414Z,99.99
2022-09-28T07:46:53.369Z,99.99
2022-09-28T07:47:53.448Z,99.99
2022-09-28T07:48:53.342Z,99.99
2022-09-28T07:49:53.321Z,99.99
2022-09-28T07:50:53.316Z,99.99
2022-09-28T07:51:53.306Z,99.99
2022-09-28T07:52:53.308Z,99.99
2022-09-28T07:53:53.305Z,99.99
2022-09-28T07:54:53.268Z,99.99
2022-09-28T07:55:53.257Z,99.99
2022-09-28T07:56:53.247Z,99.99
2022-09-28T07:57:53.237Z,99.99
2022-09-28T07:58:53.317Z,99.99
2022-09-28T07:59:53.212Z,99.95
2022-09-28T08:00:53.248Z,99.99
2022-09-28T08:01:53.305Z,99.99
2022-09-28T08:02:53.184Z,99.99
2022-09-28T08:03:53.183Z,99.99
2022-09-28T08:04:53.162Z,99.99
2022-09-28T08:05:53.357Z,99.99
2022-09-28T08:06:53.212Z,99.99
2022-09-28T08:07:53.127Z,99.99
2022-09-28T08:08:53.133Z,99.99
2022-09-28T08:09:53.340Z,99.99
2022-09-28T08:10:53.165Z,99.99
2022-09-28T08:11:53.082Z,99.99
2022-09-28T08:12:53.133Z,99.99
2022-09-28T08:13:53.061Z,99.99
2022-09-28T08:14:53.061Z,99.99
2022-09-28T08:15:53.039Z,99.99
2022-09-28T08:16:53.419Z,99.99
2022-09-28T08:17:53.017Z,99.99
2022-09-28T08:18:53.060Z,99.99
2022-09-28T08:19:53.009Z,99.99
2022-09-28T08:20:52.986Z,99.99
2022-09-28T08:21:52.980Z,99.99
2022-09-28T08:22:52.966Z,99.99
2022-09-28T08:23:52.972Z,99.99
2022-09-28T08:24:53.001Z,99.99
2022-09-28T08:25:52.991Z,99.99
2022-09-28T08:26:52.928Z,99.56
2022-09-28T08:27:52.909Z,99.99
2022-09-28T08:28:52.897Z,99.99
2022-09-28T08:29:52.895Z,99.56
2022-09-28T08:30:52.948Z,99.99
2022-09-28T08:31:52.863Z,99.99
2022-09-28T08:32:52.861Z,99.99
2022-09-28T08:33:52.842Z,99.99
2022-09-28T08:34:52.847Z,99.99
2022-09-28T08:35:52.822Z,99.99
2022-09-28T08:36:52.892Z,99.99
2022-09-28T08:37:55.511Z,99.99
2022-09-28T08:38:52.790Z,99.99
2022-09-28T08:39:52.791Z,99.72
2022-09-28T08:40:52.922Z,99.99
2022-09-28T08:41:52.777Z,99.99
2022-09-28T08:42:52.813Z,99.99
2022-09-28T08:43:52.742Z,99.99
2022-09-28T08:44:52.726Z,99.99
2022-09-28T08:45:52.720Z,99.99
2022-09-28T08:46:52.810Z,99.99
2022-09-28T08:47:52.689Z,99.99
2022-09-28T08:49:13.343Z,99.99
2022-09-28T08:50:52.658Z,99.99
2022-09-28T08:51:52.645Z,99.99
2022-09-28T08:52:52.647Z,99.99
2022-09-28T08:53:52.624Z,99.99
2022-09-28T08:54:52.705Z,99.99
2022-09-28T08:55:52.605Z,99.99
2022-09-28T08:56:52.594Z,99.99
2022-09-28T08:57:52.614Z,99.99
2022-09-28T08:58:52.570Z,99.99
2022-09-28T08:59:52.559Z,99.99
2022-09-28T09:00:52.634Z,99.99
2022-09-28T09:01:55.660Z,99.99
2022-09-28T09:02:52.615Z,99.99
2022-09-28T09:03:52.521Z,99.99
2022-09-28T09:04:52.505Z,99.99
2022-09-28T09:05:52.493Z,99.99
2022-09-28T09:06:52.549Z,99.99
2022-09-28T09:07:52.475Z,99.99
2022-09-28T09:08:52.489Z,99.99
2022-09-28T09:09:52.451Z,99.99
2022-09-28T09:10:52.439Z,99.99
2022-09-28T09:11:52.431Z,99.99
2022-09-28T09:13:52.442Z,99.99
2022-09-28T09:14:52.397Z,99.99
2022-09-28T09:15:52.385Z,99.99
2022-09-28T09:16:52.430Z,99.99
2022-09-28T09:17:52.359Z,99.99
2022-09-28T09:18:52.420Z,99.99
2022-09-28T09:19:52.365Z,99.99
2022-09-28T09:20:52.332Z,99.99
2022-09-28T09:21:52.533Z,99.99
2022-09-28T09:22:52.325Z,99.99
2022-09-28T09:23:52.362Z,99.99
2022-09-28T09:24:52.287Z,99.99
2022-09-28T09:25:52.276Z,99.99
2022-09-28T09:26:52.328Z,99.99
2022-09-28T09:27:52.266Z,99.99
2022-09-28T09:28:52.256Z,99.99
2022-09-28T09:29:52.261Z,99.99
2022-09-28T09:30:52.259Z,99.99
2022-09-28T09:31:52.288Z,99.99
2022-09-28T09:32:52.200Z,98.96
2022-09-28T09:33:52.188Z,99.99
2022-09-28T09:34:52.191Z,98.91
2022-09-28T09:35:52.165Z,99.57
2022-09-28T09:36:52.154Z,99.99
2022-09-28T09:37:55.256Z,99.99
2022-09-28T09:38:53.137Z,99.99
2022-09-28T09:39:52.123Z,99.99
2022-09-28T09:40:52.364Z,99.99
2022-09-28T09:41:52.104Z,99.99
2022-09-28T09:42:52.091Z,99.79
2022-09-28T09:43:52.085Z,98.91
2022-09-28T09:44:52.069Z,99.99
2022-09-28T09:45:52.131Z,99.99
2022-09-28T09:46:52.057Z,99.99
2022-09-28T09:47:52.034Z,99.99
2022-09-28T09:48:52.024Z,99.99
2022-09-28T09:49:52.025Z,99.99
2022-09-28T09:50:52.022Z,99.99
2022-09-28T09:51:51.991Z,99.99
2022-09-28T09:52:52.006Z,99.99
2022-09-28T09:53:51.970Z,99.99
2022-09-28T09:54:51.960Z,99.99
2022-09-28T09:55:51.970Z,99.99
2022-09-28T09:56:51.952Z,99.99
2022-09-28T09:57:51.929Z,99.99
2022-09-28T09:58:51.926Z,99.99
2022-09-28T09:59:51.904Z,99.99
2022-09-28T10:00:52.010Z,99.99
2022-09-28T10:01:51.945Z,99.99
2022-09-28T10:02:51.948Z,99.99
2022-09-28T10:03:51.872Z,99.99
2022-09-28T10:04:51.849Z,99.99
2022-09-28T10:05:51.839Z,99.99
2022-09-28T10:06:51.838Z,99.99
2022-09-28T10:07:51.880Z,99.99
2022-09-28T10:08:51.805Z,99.99
2022-09-28T10:09:51.819Z,99.99
2022-09-28T10:10:51.783Z,99.99
2022-09-28T10:11:51.772Z,99.99
2022-09-28T10:12:51.759Z,99.99
2022-09-28T10:13:51.825Z,99.99
2022-09-28T10:14:51.749Z,99.99
2022-09-28T10:15:51.734Z,99.99
2022-09-28T10:16:51.783Z,99.99
2022-09-28T10:17:51.732Z,99.99
2022-09-28T10:18:51.707Z,99.99
2022-09-28T10:19:51.752Z,99.99
2022-09-28T10:20:51.682Z,99.99
2022-09-28T10:21:51.659Z,99.99
2022-09-28T10:22:51.651Z,99.99
2022-09-28T10:23:51.638Z,99.99
2022-09-28T10:24:51.645Z,99.99
2022-09-28T10:25:51.676Z,99.99
2022-09-28T10:26:51.607Z,99.99
2022-09-28T10:27:51.597Z,99.99
2022-09-28T10:28:51.583Z,99.99
2022-09-28T10:29:51.572Z,99.99
2022-09-28T10:30:51.678Z,99.99
2022-09-28T10:31:51.623Z,99.99
2022-09-28T10:32:51.540Z,99.99
2022-09-28T10:33:51.567Z,99.99
2022-09-28T10:34:51.519Z,99.99
2022-09-28T10:35:51.519Z,99.99
2022-09-28T10:36:51.502Z,99.99
2022-09-28T10:37:51.545Z,99.99
2022-09-28T10:38:51.476Z,99.99
2022-09-28T10:39:51.467Z,99.99
2022-09-28T10:40:51.551Z,99.99
2022-09-28T10:41:51.442Z,99.99
2022-09-28T10:42:51.432Z,99.99
2022-09-28T10:43:53.822Z,99.99
2022-09-28T10:44:51.413Z,99.94
2022-09-28T10:45:51.434Z,99.88
2022-09-28T10:46:51.398Z,99.99
2022-09-28T10:47:51.381Z,99.99
2022-09-28T10:48:51.372Z,99.52
2022-09-28T10:49:51.390Z,99.99
2022-09-28T10:50:51.382Z,99.99
2022-09-28T10:51:51.366Z,99.99
2022-09-28T10:52:51.344Z,99.99
2022-09-28T10:53:51.309Z,99.23
2022-09-28T10:54:51.297Z,99.95
2022-09-28T10:55:51.434Z,99.02
2022-09-28T10:56:51.307Z,97.85
2022-09-28T10:57:51.266Z,97.08
2022-09-28T10:58:51.268Z,98.79
2022-09-28T10:59:51.245Z,97.55
2022-09-28T11:00:51.232Z,97.28
2022-09-28T11:01:51.311Z,99.09
2022-09-28T11:02:51.300Z,98.79
2022-09-28T11:03:51.210Z,96.62
2022-09-28T11:04:51.192Z,98.33
2022-09-28T11:05:51.209Z,98.28
2022-09-28T11:06:51.243Z,97.66
2022-09-28T11:07:51.157Z,96.94
2022-09-28T11:08:51.169Z,97.82
2022-09-28T11:09:51.305Z,94.78
2022-09-28T11:10:51.123Z,97.16
2022-09-28T11:11:51.113Z,96.04
2022-09-28T11:12:51.114Z,96.45
2022-09-28T11:13:51.090Z,92.60
2022-09-28T11:14:51.133Z,93.83
2022-09-28T11:15:51.071Z,94.81
2022-09-28T11:16:51.143Z,93.01
2022-09-28T11:17:51.046Z,89.87
2022-09-28T11:18:51.046Z,92.85
2022-09-28T11:19:51.024Z,94.29
2022-09-28T11:20:51.091Z,92.91
2022-09-28T11:21:51.027Z,91.45
2022-09-28T11:22:53.180Z,90.73
2022-09-28T11:23:50.982Z,91.60
2022-09-28T11:24:50.973Z,92.89
2022-09-28T11:25:50.958Z,91.29
2022-09-28T11:26:50.955Z,92.01
2022-09-28T11:27:50.942Z,91.70
2022-09-28T11:28:50.931Z,90.26
2022-09-28T11:29:50.923Z,91.35
2022-09-28T11:30:50.959Z,90.06
2022-09-28T11:31:50.891Z,92.99
2022-09-28T11:32:50.953Z,91.04
2022-09-28T11:33:50.880Z,91.76
2022-09-28T11:34:59.978Z,91.86
2022-09-28T11:35:51.844Z,89.75
2022-09-28T11:36:50.834Z,91.08
2022-09-28T11:37:50.849Z,92.79
2022-09-28T11:38:50.897Z,93.57
2022-09-28T11:39:50.810Z,89.40
2022-09-28T11:40:50.883Z,89.29
2022-09-28T11:41:50.782Z,89.34
2022-09-28T11:42:50.796Z,92.03
2022-09-28T11:43:50.757Z,89.25
2022-09-28T11:44:50.806Z,90.38
2022-09-28T11:45:50.786Z,92.04
2022-09-28T11:46:50.723Z,90.61
2022-09-28T11:47:50.714Z,89.75
2022-09-28T11:48:50.714Z,88.31
2022-09-28T11:49:50.699Z,88.51
2022-09-28T11:50:50.753Z,89.75
2022-09-28T11:51:50.669Z,88.56
2022-09-28T11:52:50.658Z,88.56
2022-09-28T11:53:50.673Z,88.18
2022-09-28T11:54:50.653Z,89.89
2022-09-28T11:55:50.625Z,90.30
2022-09-28T11:56:50.717Z,89.27
2022-09-28T11:57:50.609Z,89.43
2022-09-28T11:58:50.610Z,89.60
2022-09-28T11:59:50.581Z,88.27
2022-09-28T12:00:50.579Z,88.37
2022-09-28T12:01:50.567Z,86.90
2022-09-28T12:02:50.689Z,86.57
2022-09-28T12:03:50.700Z,89.09
2022-09-28T12:04:50.544Z,86.28
2022-09-28T12:05:50.518Z,85.77
2022-09-28T12:06:50.519Z,86.58
2022-09-28T12:07:50.494Z,85.87
2022-09-28T12:08:50.507Z,89.31
2022-09-28T12:09:50.525Z,88.18
2022-09-28T12:10:50.462Z,87.43
2022-09-28T12:11:50.462Z,87.02
2022-09-28T12:12:50.450Z,85.07
2022-09-28T12:13:50.445Z,85.38
2022-09-28T12:14:50.457Z,87.63
2022-09-28T12:16:20.067Z,86.32
2022-09-28T12:17:05.913Z,84.25
2022-09-28T12:17:51.486Z,87.53
2022-09-28T12:18:50.458Z,85.17
2022-09-28T12:19:50.379Z,86.30
2022-09-28T12:20:50.391Z,85.30
2022-09-28T12:21:50.358Z,82.86
2022-09-28T12:22:50.333Z,85.63
2022-09-28T12:23:50.319Z,84.39
2022-09-28T12:24:50.313Z,85.89
2022-09-28T12:25:50.330Z,84.77
2022-09-28T12:26:50.365Z,84.25
2022-09-28T12:27:50.280Z,83.68
2022-09-28T12:28:50.268Z,85.85
2022-09-28T12:29:50.317Z,82.14
2022-09-28T12:30:50.315Z,86.14
2022-09-28T12:31:50.235Z,84.80
2022-09-28T12:32:50.297Z,84.23
2022-09-28T12:33:50.246Z,85.71
2022-09-28T12:34:50.201Z,85.97
2022-09-28T12:35:50.205Z,82.24
2022-09-28T12:36:50.177Z,86.36
2022-09-28T12:37:53.949Z,84.99
2022-09-28T12:39:08.526Z,83.29
2022-09-28T12:39:58.015Z,84.15
2022-09-28T12:40:51.221Z,84.70
2022-09-28T12:41:50.164Z,82.18
2022-09-28T12:42:50.112Z,86.48
2022-09-28T12:43:50.181Z,86.04
2022-09-28T12:44:50.091Z,84.80
2022-09-28T12:46:10.464Z,84.46
2022-09-28T12:46:51.094Z,83.54
2022-09-28T12:47:50.058Z,84.38
2022-09-28T12:49:11.503Z,82.07
2022-09-28T12:50:57.053Z,81.01
2022-09-28T12:51:51.008Z,80.94
2022-09-28T12:52:49.997Z,83.60
2022-09-28T12:53:49.988Z,84.83
2022-09-28T12:54:49.977Z,83.19
2022-09-28T12:55:49.992Z,82.62